createdAt,value
2022-12-14T00:01:26.553Z,68.54
2022-12-14T00:03:53.833Z,68.81
2022-12-14T00:06:29.676Z,68.56
2022-12-14T00:08:59.368Z,68.55
2022-12-14T00:11:26.409Z,68.58
2022-12-14T00:13:57.456Z,68.50
2022-12-14T00:16:26.177Z,68.88
2022-12-14T00:18:54.832Z,68.45
2022-12-14T00:21:22.028Z,68.54
2022-12-14T00:23:52.872Z,68.37
2022-12-14T00:26:24.793Z,68.59
2022-12-14T00:28:53.822Z,68.28
2022-12-14T00:31:21.731Z,68.27
2022-12-14T00:33:50.407Z,68.12
2022-12-14T00:36:17.005Z,68.30
2022-12-14T00:38:43.786Z,68.16
2022-12-14T00:41:11.081Z,68.00
2022-12-14T00:43:38.095Z,67.90
2022-12-14T00:46:05.076Z,67.58
2022-12-14T00:48:32.086Z,67.54
2022-12-14T00:50:59.116Z,67.59
2022-12-14T00:53:25.659Z,67.16
2022-12-14T00:55:52.777Z,67.36
2022-12-14T00:58:21.482Z,67.22
2022-12-14T01:00:57.732Z,67.24
2022-12-14T01:03:24.917Z,67.31
2022-12-14T01:05:51.623Z,67.49
2022-12-14T01:08:18.106Z,67.28
2022-12-14T01:10:44.946Z,67.63
2022-12-14T01:13:11.767Z,67.37
2022-12-14T01:15:38.374Z,67.20
2022-12-14T01:18:05.496Z,67.15
2022-12-14T01:20:32.143Z,67.53
2022-12-14T01:22:58.653Z,67.21
2022-12-14T01:25:26.407Z,66.94
2022-12-14T01:27:52.892Z,67.04
2022-12-14T01:30:19.802Z,66.94
2022-12-14T01:32:47.221Z,67.04
2022-12-14T01:35:13.967Z,66.71
2022-12-14T01:37:40.447Z,66.70
2022-12-14T01:40:07.410Z,66.78
2022-12-14T01:42:35.911Z,66.80
2022-12-14T01:45:03.818Z,66.57
2022-12-14T01:47:38.272Z,66.65
2022-12-14T01:50:09.521Z,66.62
2022-12-14T01:52:45.771Z,66.62
2022-12-14T01:55:24.291Z,67.00
2022-12-14T01:57:50.823Z,67.26
2022-12-14T02:00:18.132Z,67.09
2022-12-14T02:02:54.961Z,66.63
2022-12-14T02:05:23.512Z,66.72
2022-12-14T02:07:52.543Z,66.67
2022-12-14T02:10:19.306Z,66.98
2022-12-14T02:12:49.592Z,66.75
2022-12-14T02:15:16.862Z,66.99
2022-12-14T02:17:46.015Z,67.16
2022-12-14T02:20:14.720Z,66.92
2022-12-14T02:22:53.069Z,67.02
2022-12-14T02:25:50.539Z,67.01
2022-12-14T02:28:41.813Z,66.60
2022-12-14T02:31:38.911Z,66.89
2022-12-14T02:34:15.711Z,66.80
2022-12-14T02:36:53.177Z,66.92
2022-12-14T02:39:27.711Z,67.08
2022-12-14T02:41:57.002Z,66.86
2022-12-14T02:44:46.647Z,67.10
2022-12-14T02:47:26.487Z,66.90
2022-12-14T02:50:07.982Z,66.79
2022-12-14T02:52:47.285Z,66.69
2022-12-14T02:55:35.576Z,66.68
2022-12-14T02:58:07.306Z,66.57
2022-12-14T03:00:37.338Z,66.40
2022-12-14T03:03:05.892Z,66.49
2022-12-14T03:05:33.338Z,66.54
2022-12-14T03:08:03.844Z,66.36
2022-12-14T03:10:57.959Z,66.49
2022-12-14T03:13:31.113Z,66.32
2022-12-14T03:16:08.009Z,66.33
2022-12-14T03:18:42.795Z,66.36
2022-12-14T03:21:15.766Z,66.23
2022-12-14T03:23:48.720Z,66.33
2022-12-14T03:26:42.884Z,66.44
2022-12-14T03:29:20.678Z,66.47
2022-12-14T03:31:55.750Z,66.23
2022-12-14T03:34:28.443Z,67.00
2022-12-14T03:37:13.186Z,67.15
2022-12-14T03:39:42.400Z,67.05
2022-12-14T03:42:19.276Z,67.04
2022-12-14T03:45:19.896Z,66.88
2022-12-14T03:47:52.627Z,66.99
2022-12-14T03:50:43.749Z,66.81
2022-12-14T03:53:25.912Z,66.91
2022-12-14T03:56:04.793Z,66.43
2022-12-14T03:58:57.197Z,66.66
2022-12-14T04:01:49.111Z,66.73
2022-12-14T04:04:22.593Z,66.71
2022-12-14T04:06:51.858Z,66.74
2022-12-14T04:09:54.029Z,66.69
2022-12-14T04:12:51.670Z,66.60
2022-12-14T04:15:42.967Z,66.79
2022-12-14T04:18:32.851Z,66.70
2022-12-14T04:21:07.560Z,66.91
2022-12-14T04:24:03.379Z,66.80
2022-12-14T04:26:35.973Z,66.84
2022-12-14T04:29:25.858Z,66.55
2022-12-14T04:32:01.882Z,66.93
2022-12-14T04:34:31.132Z,66.58
2022-12-14T04:37:04.609Z,66.44
2022-12-14T04:40:05.356Z,66.49
2022-12-14T04:42:36.265Z,66.45
2022-12-14T04:45:11.254Z,66.49
2022-12-14T04:47:43.878Z,66.58
2022-12-14T04:50:21.467Z,66.63
2022-12-14T04:53:25.637Z,66.47
2022-12-14T04:56:05.382Z,66.61
2022-12-14T04:58:32.908Z,66.67
2022-12-14T05:01:11.492Z,66.80
2022-12-14T05:03:51.550Z,66.39
2022-12-14T05:06:20.873Z,66.20
2022-12-14T05:09:14.969Z,66.46
2022-12-14T05:11:53.959Z,66.26
2022-12-14T05:14:47.278Z,66.17
2022-12-14T05:17:14.893Z,66.12
2022-12-14T05:19:49.319Z,66.24
2022-12-14T05:22:17.139Z,65.95
2022-12-14T05:24:43.819Z,65.97
2022-12-14T05:27:10.417Z,65.97
2022-12-14T05:29:36.906Z,65.93
2022-12-14T05:32:03.550Z,66.12
2022-12-14T05:34:30.873Z,66.17
2022-12-14T05:36:59.006Z,66.20
2022-12-14T05:39:25.486Z,66.29
2022-12-14T05:41:53.370Z,66.04
2022-12-14T05:44:20.649Z,66.10
2022-12-14T05:46:47.350Z,66.21
2022-12-14T05:49:13.837Z,66.19
2022-12-14T05:51:40.483Z,65.61
2022-12-14T05:54:06.999Z,65.94
2022-12-14T05:56:33.507Z,65.75
2022-12-14T05:59:00.147Z,65.90
2022-12-14T06:01:26.666Z,66.05
2022-12-14T06:03:53.510Z,65.48
2022-12-14T06:06:20.668Z,65.45
2022-12-14T06:08:48.172Z,65.57
2022-12-14T06:11:21.050Z,65.55
2022-12-14T06:13:47.907Z,65.69
2022-12-14T06:16:14.583Z,65.29
2022-12-14T06:18:48.739Z,65.05
2022-12-14T06:21:17.768Z,64.90
2022-12-14T06:23:44.941Z,64.55
2022-12-14T06:26:12.683Z,64.69
2022-12-14T06:28:40.071Z,64.78
2022-12-14T06:31:07.775Z,64.52
2022-12-14T06:33:35.208Z,64.51
2022-12-14T06:36:03.088Z,64.48
2022-12-14T06:38:29.946Z,64.63
2022-12-14T06:40:56.707Z,64.46
2022-12-14T06:43:27.131Z,64.59
2022-12-14T06:45:54.636Z,64.75
2022-12-14T06:48:21.622Z,64.63
2022-12-14T06:50:48.110Z,64.67
2022-12-14T06:53:14.641Z,64.85
2022-12-14T06:55:41.377Z,64.57
2022-12-14T06:58:12.535Z,64.53
2022-12-14T07:00:39.058Z,64.75
2022-12-14T07:03:05.642Z,64.54
2022-12-14T07:05:33.082Z,64.81
2022-12-14T07:07:59.545Z,65.03
2022-12-14T07:10:26.078Z,65.50
2022-12-14T07:12:52.543Z,66.37
2022-12-14T07:15:19.028Z,67.41
2022-12-14T07:17:45.566Z,67.28
2022-12-14T07:20:12.243Z,67.29
2022-12-14T07:22:39.091Z,67.36
2022-12-14T07:25:06.172Z,68.79
2022-12-14T07:27:32.891Z,68.81
2022-12-14T07:29:59.810Z,68.99
2022-12-14T07:32:26.403Z,69.24
2022-12-14T07:34:52.851Z,69.11
2022-12-14T07:37:19.376Z,69.47
2022-12-14T07:39:46.014Z,68.76
2022-12-14T07:42:12.997Z,67.73
2022-12-14T07:44:39.466Z,67.17
2022-12-14T07:47:05.961Z,66.21
2022-12-14T07:49:32.685Z,65.79
2022-12-14T07:51:59.232Z,65.42
2022-12-14T07:54:26.637Z,65.23
2022-12-14T07:56:53.109Z,64.41
2022-12-14T07:59:21.014Z,64.41
2022-12-14T08:01:48.124Z,63.92
2022-12-14T08:04:17.361Z,63.61
2022-12-14T08:06:44.646Z,63.37
2022-12-14T08:09:12.043Z,62.98
2022-12-14T08:11:39.431Z,63.02
2022-12-14T08:14:09.175Z,62.72
2022-12-14T08:16:35.725Z,62.56
2022-12-14T08:19:03.314Z,62.56
2022-12-14T08:21:30.718Z,62.74
2022-12-14T08:23:58.134Z,62.59
2022-12-14T08:26:31.525Z,62.44
2022-12-14T08:28:59.907Z,62.61
2022-12-14T08:31:28.277Z,62.79
2022-12-14T08:33:55.367Z,63.08
2022-12-14T08:36:30.134Z,63.25
2022-12-14T08:38:59.634Z,63.38
2022-12-14T08:41:27.148Z,62.92
2022-12-14T08:43:56.403Z,63.29
2022-12-14T08:46:24.123Z,63.64
2022-12-14T08:48:52.915Z,63.40
2022-12-14T08:51:20.445Z,63.34
2022-12-14T08:53:49.818Z,63.69
2022-12-14T08:56:19.171Z,63.85
2022-12-14T08:58:45.739Z,64.07
2022-12-14T09:01:20.253Z,63.75
2022-12-14T09:03:47.549Z,64.03
2022-12-14T09:06:16.913Z,63.69
2022-12-14T09:08:43.553Z,63.48
2022-12-14T09:11:15.281Z,63.28
2022-12-14T09:13:43.211Z,63.50
2022-12-14T09:16:16.040Z,63.47
2022-12-14T09:18:43.265Z,62.98
2022-12-14T09:21:09.862Z,62.96
2022-12-14T09:23:37.391Z,63.46
2022-12-14T09:26:09.290Z,63.44
2022-12-14T09:28:37.809Z,64.07
2022-12-14T09:31:07.448Z,64.08
2022-12-14T09:33:35.066Z,64.45
2022-12-14T09:36:07.339Z,64.77
2022-12-14T09:38:35.954Z,65.02
2022-12-14T09:41:07.424Z,65.23
2022-12-14T09:43:39.446Z,65.56
2022-12-14T09:46:31.024Z,65.64
2022-12-14T09:48:58.209Z,66.28
2022-12-14T09:51:32.477Z,66.35
2022-12-14T09:54:05.721Z,66.82
2022-12-14T09:56:33.749Z,66.87
2022-12-14T09:59:02.584Z,66.74
2022-12-14T10:02:30.753Z,66.81
2022-12-14T10:05:07.108Z,66.72
2022-12-14T10:07:52.197Z,66.27
2022-12-14T10:10:31.902Z,66.39
2022-12-14T10:13:32.921Z,66.15
2022-12-14T10:16:10.743Z,66.62
2022-12-14T10:19:07.225Z,66.61
2022-12-14T10:21:42.578Z,66.52
2022-12-14T10:24:16.604Z,67.00
2022-12-14T10:26:51.425Z,66.91
2022-12-14T10:29:57.234Z,66.74
2022-12-14T10:32:39.355Z,66.79
2022-12-14T10:35:17.696Z,66.55
2022-12-14T10:37:48.834Z,66.52
2022-12-14T10:40:31.102Z,66.75
2022-12-14T10:43:05.234Z,67.06
2022-12-14T10:45:55.371Z,66.88
2022-12-14T10:48:28.182Z,66.73
2022-12-14T10:51:05.130Z,66.81
2022-12-14T10:53:42.270Z,66.60
2022-12-14T10:56:19.314Z,66.57
2022-12-14T10:59:17.538Z,66.23
2022-12-14T11:01:47.089Z,66.53
2022-12-14T11:04:24.571Z,66.64
2022-12-14T11:06:51.250Z,66.54
2022-12-14T11:09:23.198Z,66.14
2022-12-14T11:11:58.831Z,66.02
2022-12-14T11:14:26.543Z,65.87
2022-12-14T11:16:53.173Z,65.58
2022-12-14T11:19:22.201Z,65.19
2022-12-14T11:22:05.322Z,65.52
2022-12-14T11:24:31.862Z,64.95
2022-12-14T11:27:02.383Z,64.83
2022-12-14T11:29:35.653Z,64.89
2022-12-14T11:32:04.626Z,65.14
2022-12-14T11:34:38.246Z,65.14
2022-12-14T11:37:11.806Z,64.95
2022-12-14T11:39:41.270Z,65.01
2022-12-14T11:42:16.467Z,65.19
2022-12-14T11:44:43.047Z,65.33
2022-12-14T11:47:15.888Z,65.24
2022-12-14T11:49:42.300Z,65.48
2022-12-14T11:52:13.062Z,65.39
2022-12-14T11:54:42.931Z,64.74
2022-12-14T11:57:21.287Z,64.71
2022-12-14T11:59:55.172Z,64.57
2022-12-14T12:02:30.415Z,64.35
2022-12-14T12:05:07.771Z,64.55
2022-12-14T12:07:41.309Z,64.59
2022-12-14T12:10:14.517Z,64.41
2022-12-14T12:12:56.445Z,64.07
2022-12-14T12:15:32.516Z,64.17
2022-12-14T12:18:11.349Z,63.70
2022-12-14T12:20:51.706Z,63.80
2022-12-14T12:23:33.958Z,63.07
2022-12-14T12:26:07.016Z,62.88
2022-12-14T12:28:36.477Z,62.61
2022-12-14T12:31:11.103Z,62.18
2022-12-14T12:33:59.533Z,62.23
2022-12-14T12:36:26.998Z,61.70
2022-12-14T12:39:05.475Z,61.27
2022-12-14T12:41:40.218Z,61.59
2022-12-14T12:44:22.843Z,61.11
2022-12-14T12:47:23.435Z,61.31
2022-12-14T12:49:45.703Z,61.19
2022-12-14T12:52:34.239Z,61.23
2022-12-14T12:55:08.201Z,61.01
2022-12-14T12:57:45.344Z,61.37
2022-12-14T13:00:18.484Z,61.37
2022-12-14T13:03:11.306Z,60.96
2022-12-14T13:05:49.163Z,61.08
2022-12-14T13:08:39.324Z,61.08
2022-12-14T13:11:26.197Z,61.17
2022-12-14T13:14:13.390Z,60.79
2022-12-14T13:16:42.075Z,60.94
2022-12-14T13:19:49.921Z,60.74
2022-12-14T13:22:15.104Z,60.78
2022-12-14T13:24:46.153Z,60.92
2022-12-14T13:27:30.003Z,60.58
2022-12-14T13:30:15.272Z,60.73
2022-12-14T13:33:16.718Z,61.00
2022-12-14T13:36:05.030Z,60.76
2022-12-14T13:38:50.713Z,61.21
2022-12-14T13:41:49.658Z,60.90
2022-12-14T13:44:16.107Z,61.10
2022-12-14T13:46:43.238Z,61.30
2022-12-14T13:49:20.500Z,61.72
2022-12-14T13:51:50.555Z,61.77
2022-12-14T13:54:39.162Z,61.60
2022-12-14T13:57:08.259Z,61.53
2022-12-14T13:59:34.736Z,61.65
2022-12-14T14:02:03.721Z,61.39
2022-12-14T14:04:31.228Z,60.99
2022-12-14T14:07:23.533Z,60.53
2022-12-14T14:09:56.397Z,60.54
2022-12-14T14:12:34.881Z,60.80
2022-12-14T14:15:26.609Z,60.84
2022-12-14T14:18:05.577Z,61.51
2022-12-14T14:20:44.668Z,61.59
2022-12-14T14:23:14.460Z,61.38
2022-12-14T14:25:49.490Z,61.37
2022-12-14T14:28:22.699Z,61.38
2022-12-14T14:30:53.067Z,61.51
2022-12-14T14:33:46.170Z,61.47
2022-12-14T14:36:36.892Z,61.57
2022-12-14T14:39:54.977Z,61.62
2022-12-14T14:42:20.487Z,62.05
2022-12-14T14:44:53.781Z,62.12
2022-12-14T14:47:26.792Z,62.32
2022-12-14T14:50:00.922Z,62.52
2022-12-14T14:52:39.589Z,62.46
2022-12-14T14:55:53.420Z,62.36
2022-12-14T14:58:39.329Z,62.89
2022-12-14T15:01:06.321Z,63.09
2022-12-14T15:03:41.296Z,63.11
2022-12-14T15:06:21.308Z,62.89
2022-12-14T15:08:57.330Z,63.13
2022-12-14T15:11:26.779Z,63.91
2022-12-14T15:14:06.670Z,63.92
2022-12-14T15:16:43.161Z,63.84
2022-12-14T15:19:24.014Z,64.24
2022-12-14T15:21:59.085Z,64.16
2022-12-14T15:24:27.216Z,64.29
2022-12-14T15:26:54.147Z,64.67
2022-12-14T15:29:28.225Z,64.12
2022-12-14T15:32:00.567Z,64.32
2022-12-14T15:34:27.714Z,64.59
2022-12-14T15:36:54.927Z,64.54
2022-12-14T15:39:28.458Z,64.75
2022-12-14T15:42:10.126Z,64.87
2022-12-14T15:44:36.982Z,64.74
2022-12-14T15:47:03.726Z,64.78
2022-12-14T15:49:30.209Z,64.96
2022-12-14T15:51:59.051Z,64.97
2022-12-14T15:54:26.289Z,64.98
2022-12-14T15:56:57.810Z,65.07
2022-12-14T15:59:35.283Z,65.02
2022-12-14T16:02:18.787Z,65.04
2022-12-14T16:04:46.310Z,65.20
2022-12-14T16:07:23.172Z,65.35
2022-12-14T16:09:58.408Z,65.17
2022-12-14T16:12:44.150Z,65.67
2022-12-14T16:15:20.813Z,65.72
2022-12-14T16:17:47.507Z,65.86
2022-12-14T16:20:14.693Z,66.04
2022-12-14T16:22:41.649Z,66.10
2022-12-14T16:25:08.082Z,66.31
2022-12-14T16:27:40.000Z,66.61
2022-12-14T16:30:07.591Z,66.51
2022-12-14T16:32:34.171Z,66.88
2022-12-14T16:35:01.485Z,67.07
2022-12-14T16:37:33.148Z,67.22
2022-12-14T16:40:00.378Z,67.20
2022-12-14T16:42:28.022Z,67.72
2022-12-14T16:44:54.902Z,67.46
2022-12-14T16:47:21.577Z,67.36
2022-12-14T16:49:48.066Z,67.50
2022-12-14T16:52:21.532Z,67.65
2022-12-14T16:55:17.143Z,67.83
2022-12-14T16:57:49.505Z,67.69
2022-12-14T17:00:24.973Z,67.90
2022-12-14T17:03:23.078Z,67.66
2022-12-14T17:05:56.789Z,67.93
2022-12-14T17:08:23.289Z,68.27
2022-12-14T17:10:50.157Z,68.39
2022-12-14T17:13:16.972Z,68.28
2022-12-14T17:16:18.142Z,68.54
2022-12-14T17:18:44.749Z,68.85
2022-12-14T17:21:22.701Z,68.85
2022-12-14T17:23:49.388Z,69.18
2022-12-14T17:26:28.559Z,69.00
2022-12-14T17:28:55.383Z,69.34
2022-12-14T17:31:25.111Z,69.05
2022-12-14T17:33:52.910Z,69.18
2022-12-14T17:36:19.419Z,69.45
2022-12-14T17:38:46.097Z,69.12
2022-12-14T17:41:26.390Z,69.29
2022-12-14T17:43:57.417Z,69.53
2022-12-14T17:46:25.243Z,69.38
2022-12-14T17:48:51.842Z,69.60
2022-12-14T17:51:25.392Z,69.47
2022-12-14T17:53:57.411Z,69.55
2022-12-14T17:56:24.536Z,69.69
2022-12-14T17:58:51.145Z,69.79
2022-12-14T18:01:22.785Z,69.73
2022-12-14T18:03:50.784Z,69.86
2022-12-14T18:06:18.383Z,69.91
2022-12-14T18:08:46.103Z,70.22
2022-12-14T18:11:18.591Z,70.09
2022-12-14T18:13:45.307Z,70.29
2022-12-14T18:16:18.955Z,70.28
2022-12-14T18:18:45.997Z,70.09
2022-12-14T18:21:25.262Z,70.30
2022-12-14T18:23:52.658Z,70.76
2022-12-14T18:26:21.219Z,70.52
2022-12-14T18:28:55.770Z,71.00
2022-12-14T18:31:36.067Z,70.90
2022-12-14T18:34:03.530Z,71.07
2022-12-14T18:36:30.773Z,71.18
2022-12-14T18:38:57.670Z,70.94
2022-12-14T18:41:26.173Z,70.84
2022-12-14T18:43:54.337Z,71.08
2022-12-14T18:46:20.898Z,71.10
2022-12-14T18:48:47.755Z,71.34
2022-12-14T18:51:23.545Z,71.21
2022-12-14T18:53:58.167Z,71.69
2022-12-14T18:56:28.064Z,71.48
2022-12-14T18:58:54.699Z,71.91
2022-12-14T19:01:24.256Z,71.95
2022-12-14T19:03:51.198Z,71.83
2022-12-14T19:09:09.586Z,71.87
2022-12-14T19:11:42.110Z,71.95
2022-12-14T19:14:10.057Z,72.15
2022-12-14T19:16:37.076Z,72.02
2022-12-14T19:19:03.769Z,72.16
2022-12-14T19:21:31.785Z,72.54
2022-12-14T19:23:59.703Z,72.46
2022-12-14T19:26:28.387Z,72.34
2022-12-14T19:28:55.223Z,72.40
2022-12-14T19:31:21.784Z,72.36
2022-12-14T19:33:48.411Z,72.65
2022-12-14T19:36:15.211Z,72.79
2022-12-14T19:38:41.739Z,72.78
2022-12-14T19:41:11.092Z,72.79
2022-12-14T19:43:38.463Z,72.59
2022-12-14T19:46:06.908Z,72.85
2022-12-14T19:48:33.677Z,73.13
2022-12-14T19:51:04.788Z,73.11
2022-12-14T19:53:33.449Z,73.17
2022-12-14T19:56:00.757Z,72.85
2022-12-14T19:58:28.663Z,72.80
2022-12-14T20:00:55.842Z,73.04
2022-12-14T20:03:23.660Z,73.29
2022-12-14T20:05:58.608Z,73.15
2022-12-14T20:08:26.218Z,73.46
2022-12-14T20:10:53.128Z,73.45
2022-12-14T20:13:23.522Z,73.20
2022-12-14T20:15:59.777Z,73.08
2022-12-14T20:18:27.565Z,73.27
2022-12-14T20:21:01.363Z,73.47
2022-12-14T20:23:28.002Z,73.50
2022-12-14T20:26:00.256Z,73.65
2022-12-14T20:28:26.825Z,73.28
2022-12-14T20:30:53.775Z,73.56
2022-12-14T20:33:22.886Z,73.69
2022-12-14T20:35:53.153Z,73.68
2022-12-14T20:38:19.681Z,73.67
2022-12-14T20:40:46.200Z,73.52
2022-12-14T20:43:12.781Z,73.76
2022-12-14T20:45:41.253Z,74.00
2022-12-14T20:48:08.570Z,74.28
2022-12-14T20:50:37.276Z,73.94
2022-12-14T20:53:04.707Z,73.95
2022-12-14T20:55:31.450Z,74.18
2022-12-14T20:57:57.966Z,74.05
2022-12-14T21:00:24.449Z,73.84
2022-12-14T21:02:51.193Z,73.66
2022-12-14T21:05:17.903Z,74.02
2022-12-14T21:07:44.389Z,73.89
2022-12-14T21:10:11.229Z,73.93
2022-12-14T21:12:37.705Z,73.98
2022-12-14T21:15:04.784Z,74.08
2022-12-14T21:17:31.357Z,74.21
2022-12-14T21:19:57.890Z,74.22
2022-12-14T21:22:27.278Z,74.04
2022-12-14T21:25:03.587Z,74.12
2022-12-14T21:27:32.160Z,73.88
2022-12-14T21:30:00.359Z,73.79
2022-12-14T21:32:27.286Z,74.17
2022-12-14T21:34:53.750Z,74.34
2022-12-14T21:37:20.557Z,74.15
2022-12-14T21:39:53.804Z,74.05
2022-12-14T21:42:23.397Z,74.30
2022-12-14T21:44:51.320Z,74.47
2022-12-14T21:47:20.769Z,74.56
2022-12-14T21:49:47.865Z,74.67
2022-12-14T21:52:20.338Z,74.74
2022-12-14T21:54:47.040Z,74.72
2022-12-14T21:57:33.748Z,74.87
2022-12-14T22:00:00.394Z,74.64
2022-12-14T22:02:27.738Z,74.78
2022-12-14T22:05:00.999Z,74.59
2022-12-14T22:07:32.415Z,74.74
2022-12-14T22:09:59.047Z,74.54
2022-12-14T22:12:25.675Z,74.49
2022-12-14T22:14:52.148Z,74.69
2022-12-14T22:17:18.729Z,74.31
2022-12-14T22:19:45.308Z,74.45
2022-12-14T22:22:16.373Z,74.56
2022-12-14T22:24:43.277Z,74.75
2022-12-14T22:27:11.862Z,74.63
2022-12-14T22:29:38.355Z,74.58
2022-12-14T22:32:05.557Z,74.39
2022-12-14T22:34:32.070Z,74.47
2022-12-14T22:36:58.594Z,74.71
2022-12-14T22:39:25.064Z,74.72
2022-12-14T22:41:51.555Z,74.78
2022-12-14T22:44:18.042Z,74.72
2022-12-14T22:46:44.685Z,74.57
2022-12-14T22:49:16.293Z,74.75
2022-12-14T22:51:42.825Z,74.78
2022-12-14T22:54:11.432Z,74.64
2022-12-14T22:56:46.553Z,74.76
2022-12-14T22:59:19.646Z,74.86
2022-12-14T23:01:49.614Z,75.02
2022-12-14T23:04:16.944Z,75.16
2022-12-14T23:06:43.573Z,74.68
2022-12-14T23:09:29.063Z,75.02
2022-12-14T23:12:18.287Z,75.18
2022-12-14T23:15:06.203Z,75.18
2022-12-14T23:17:51.071Z,75.07
2022-12-14T23:20:35.868Z,75.03
2022-12-14T23:23:24.666Z,75.20
2022-12-14T23:26:09.643Z,75.01
2022-12-14T23:28:54.957Z,75.21
2022-12-14T23:31:40.385Z,74.97
2022-12-14T23:34:25.888Z,74.91
2022-12-14T23:37:13.859Z,74.96
2022-12-14T23:40:03.223Z,74.92
2022-12-14T23:42:48.097Z,75.00
2022-12-14T23:45:33.348Z,74.98
2022-12-14T23:48:18.239Z,74.96
2022-12-14T23:51:03.089Z,75.09
2022-12-14T23:53:50.077Z,75.08
2022-12-14T23:56:36.117Z,75.25
2022-12-14T23:59:24.971Z,75.34
